Time;durP1;ratioP1;P1;durP2;ratioP2;P2;SDS_P1;SDS_P2;PMS_P1;PMS_P2;Temp;Humidity;BMP_temperature;BMP_pressure;BME280_temperature;BME280_humidity;BME280_pressure;Samples;Min_cycle;Max_cycle;Signal;HPM_P1;HPM_P2
2022/01/03 00:00:19;;;;;;;;;;;;;;;;;;2106141;28;19927;-49
2022/01/03 00:01:19;;;;;;;;;;;;;;;;;;2103779;28;19932;-49
2022/01/03 00:02:20;;;;;;;;;;;;;;;;;;2106199;28;19920;-50
2022/01/03 00:03:21;;;;;;;;;;;;;;;;;;2106163;28;19920;-50
2022/01/03 00:04:22;;;;;;;;;;;;;;;;;;2102407;28;19964;-49
2022/01/03 00:05:23;;;;;;;;;;;;;;;;;;2097768;28;19928;-49
2022/01/03 00:06:24;;;;;;;;;;;;;;;;;;2097355;28;19920;-52
2022/01/03 00:07:25;;;;;;;;;;;;;;;;;;2105875;28;20441;-49
2022/01/03 00:08:26;;;;;;;;;;;;;;;;;;2114531;28;20398;-49
2022/01/03 00:09:27;;;;;;;;;;;;;;;;;;2113213;28;19953;-49
2022/01/03 00:10:27;;;;;;;;;;;;;;;;;;2107871;28;19926;-50
2022/01/03 00:11:28;;;;;;;;;;;;;;;;;;2114394;28;19920;-49
2022/01/03 00:12:29;;;;;;;;;;;;;;;;;;2112185;28;19919;-48
2022/01/03 00:13:30;;;;;;;;;;;;;;;;;;2101532;28;19927;-50
2022/01/03 00:14:31;;;;;;;;;;;;;;;;;;2097665;28;19925;-51
2022/01/03 00:15:32;;;;;;;;;;;;;;;;;;2098447;28;20023;-50
2022/01/03 00:16:32;;;;;;;;;;;;;;;;;;2110049;28;19926;-53
2022/01/03 00:17:33;;;;;;;;;;;;;;;;;;2114449;28;20014;-50
2022/01/03 00:18:34;;;;;;;;;;;;;;;;;;2109773;28;19928;-52
2022/01/03 00:19:35;;;;;;;;;;;;;;;;;;2111424;28;19928;-49
2022/01/03 00:20:38;;;;;;;;;;;;;;;;;;2115952;28;19920;-49
2022/01/03 00:21:39;;;;;;;;;;;;;;;;;;2111230;28;19926;-49
2022/01/03 00:22:40;;;;;;;;;;;;;;;;;;2105999;28;19924;-50
2022/01/03 00:23:40;;;;;;;;;;;;;;;;;;2107436;28;19920;-49
2022/01/03 00:24:41;;;;;;;;;;;;;;;;;;2105084;28;20391;-49
2022/01/03 00:25:42;;;;;;;;;;;;;;;;;;2114494;28;19920;-49
2022/01/03 00:26:43;;;;;;;;;;;;;;;;;;2115935;28;20372;-51
2022/01/03 00:27:44;;;;;;;;;;;;;;;;;;2109502;28;19920;-50
2022/01/03 00:28:45;;;;;;;;;;;;;;;;;;2106524;28;19930;-49
2022/01/03 00:29:45;;;;;;;;;;;;;;;;;;2107325;28;19927;-50
2022/01/03 00:30:46;;;;;;;;;;;;;;;;;;2105577;28;19927;-50
2022/01/03 00:31:47;;;;;;;;;;;;;;;;;;2105592;28;19920;-51
2022/01/03 00:32:48;;;;;;;;;;;;;;;;;;2107598;28;19931;-50
2022/01/03 00:33:49;;;;;;;;;;;;;;;;;;2105538;28;19920;-51
2022/01/03 00:34:50;;;;;;;;;;;;;;;;;;2115714;28;19919;-50
2022/01/03 00:35:53;;;;;;;;;;;;;;;;;;2115910;28;20261;-49
2022/01/03 00:36:54;;;;;;;;;;;;;;;;;;2109383;28;19919;-48
2022/01/03 00:37:55;;;;;;;;;;;;;;;;;;2107522;28;19924;-49
2022/01/03 00:38:55;;;;;;;;;;;;;;;;;;2107578;28;19942;-49
2022/01/03 00:39:56;;;;;;;;;;;;;;;;;;2106202;28;20289;-53
2022/01/03 00:40:59;;;;;;;;;;;;;;;;;;2098938;28;19920;-50
2022/01/03 00:42:00;;;;;;;;;;;;;;;;;;2098791;28;20007;-51
2022/01/03 00:43:00;;;;;;;;;;;;;;;;;;2105319;28;20357;-49
2022/01/03 00:44:01;;;;;;;;;;;;;;;;;;2107485;28;20410;-49
2022/01/03 00:45:02;;;;;;;;;;;;;;;;;;2106815;28;19924;-49
2022/01/03 00:46:03;;;;;;;;;;;;;;;;;;2105333;28;19924;-48
2022/01/03 00:47:04;;;;;;;;;;;;;;;;;;2107296;28;19931;-51
2022/01/03 00:48:05;;;;;;;;;;;;;;;;;;2106534;28;19932;-60
2022/01/03 00:49:05;;;;;;;;;;;;;;;;;;2105722;28;19928;-61
2022/01/03 00:50:06;;;;;;;;;;;;;;;;;;2107453;28;19924;-62
2022/01/03 00:51:07;;;;;;;;;;;;;;;;;;2106042;28;19919;-60
2022/01/03 00:52:08;;;;;;;;;;;;;;;;;;2106390;28;19989;-61
2022/01/03 00:53:09;;;;;;;;;;;;;;;;;;2107392;28;19919;-60
2022/01/03 00:54:10;;;;;;;;;;;;;;;;;;2105211;28;19938;-60
2022/01/03 00:55:11;;;;;;;;;;;;;;;;;;2107272;28;19920;-60
2022/01/03 00:56:11;;;;;;;;;;;;;;;;;;2107322;28;19920;-57
2022/01/03 00:57:12;;;;;;;;;;;;;;;;;;2104841;28;20314;-54
2022/01/03 00:58:13;;;;;;;;;;;;;;;;;;2107096;28;19920;-53
2022/01/03 00:59:15;;;;;;;;;;;;;;;;;;2107390;28;19920;-54
2022/01/03 01:00:15;;;;;;;;;;;;;;;;;;2106132;28;20743;-55
2022/01/03 01:01:16;;;;;;;;;;;;;;;;;;2106933;28;19945;-55
2022/01/03 01:02:17;;;;;;;;;;;;;;;;;;2107254;28;19927;-54
2022/01/03 01:03:18;;;;;;;;;;;;;;;;;;2106085;28;19920;-53
2022/01/03 01:04:19;;;;;;;;;;;;;;;;;;2107260;28;20098;-55
2022/01/03 01:05:21;;;;;;;;;;;;;;;;;;2107239;28;20020;-55
2022/01/03 01:06:21;;;;;;;;;;;;;;;;;;2104864;28;20014;-55
2022/01/03 01:07:22;;;;;;;;;;;;;;;;;;2107201;28;19960;-54
2022/01/03 01:08:23;;;;;;;;;;;;;;;;;;2107166;28;19920;-56
2022/01/03 01:09:24;;;;;;;;;;;;;;;;;;2103847;28;19920;-54
2022/01/03 01:10:25;;;;;;;;;;;;;;;;;;2107346;28;19924;-55
2022/01/03 01:11:25;;;;;;;;;;;;;;;;;;2106744;28;19969;-56
2022/01/03 01:12:26;;;;;;;;;;;;;;;;;;2108339;28;20503;-54
2022/01/03 01:13:27;;;;;;;;;;;;;;;;;;2115729;28;19919;-55
2022/01/03 01:14:28;;;;;;;;;;;;;;;;;;2113936;28;20326;-55
2022/01/03 01:15:29;;;;;;;;;;;;;;;;;;2105362;28;19920;-56
2022/01/03 01:16:30;;;;;;;;;;;;;;;;;;2107161;28;19920;-54
2022/01/03 01:17:31;;;;;;;;;;;;;;;;;;2106022;28;19927;-56
2022/01/03 01:18:35;;;;;;;;;;;;;;;;;;2110262;28;19926;-54
2022/01/03 01:19:36;;;;;;;;;;;;;;;;;;2115535;28;19920;-54
2022/01/03 01:20:37;;;;;;;;;;;;;;;;;;2110278;28;20027;-54
2022/01/03 01:21:38;;;;;;;;;;;;;;;;;;2102234;28;19920;-54
2022/01/03 01:22:38;;;;;;;;;;;;;;;;;;2098835;28;19926;-53
2022/01/03 01:23:41;;;;;;;;;;;;;;;;;;2101221;28;19941;-55
2022/01/03 01:24:58;;;;;;;;;;;;;;;;;;2100770;28;19927;-52
2022/01/03 01:28:37;;;;;;;;;;;;;;;;;;2107076;28;20443;-50
2022/01/03 01:29:39;;;;;;;;;;;;;;;;;;2106001;28;19977;-50
2022/01/03 01:30:40;;;;;;;;;;;;;;;;;;2105622;28;20452;-50
2022/01/03 01:31:41;;;;;;;;;;;;;;;;;;2104799;28;19927;-50
2022/01/03 01:32:41;;;;;;;;;;;;;;;;;;2105825;28;19999;-51
2022/01/03 01:33:42;;;;;;;;;;;;;;;;;;2105796;28;19920;-52
2022/01/03 01:34:45;;;;;;;;;;;;;;;;;;2106882;28;20274;-48
2022/01/03 01:35:46;;;;;;;;;;;;;;;;;;2104793;28;20048;-49
2022/01/03 01:36:47;;;;;;;;;;;;;;;;;;2115018;28;19920;-48
2022/01/03 01:37:48;;;;;;;;;;;;;;;;;;2115373;28;19919;-50
2022/01/03 01:38:49;;;;;;;;;;;;;;;;;;2107149;28;19920;-49
2022/01/03 01:39:50;;;;;;;;;;;;;;;;;;2115484;28;19924;-48
2022/01/03 01:40:50;;;;;;;;;;;;;;;;;;2115483;28;20361;-50
2022/01/03 01:41:51;;;;;;;;;;;;;;;;;;2107096;28;19924;-51
2022/01/03 01:42:52;;;;;;;;;;;;;;;;;;2107127;28;19920;-56
2022/01/03 01:43:53;;;;;;;;;;;;;;;;;;2106868;28;19920;-54
2022/01/03 01:44:53;;;;;;;;;;;;;;;;;;2104524;28;19924;-50
2022/01/03 01:45:54;;;;;;;;;;;;;;;;;;2107059;28;19931;-50
2022/01/03 01:46:55;;;;;;;;;;;;;;;;;;2106861;28;19924;-51
2022/01/03 01:47:56;;;;;;;;;;;;;;;;;;2104461;28;19921;-53
2022/01/03 01:48:57;;;;;;;;;;;;;;;;;;2106954;28;20390;-49
2022/01/03 01:49:58;;;;;;;;;;;;;;;;;;2106359;28;19927;-52
2022/01/03 01:50:59;;;;;;;;;;;;;;;;;;2105021;28;19928;-50
2022/01/03 01:51:59;;;;;;;;;;;;;;;;;;2106975;28;20357;-52
2022/01/03 01:53:00;;;;;;;;;;;;;;;;;;2106419;28;20297;-53
2022/01/03 01:54:01;;;;;;;;;;;;;;;;;;2104886;28;19943;-51
2022/01/03 01:55:02;;;;;;;;;;;;;;;;;;2106871;28;19924;-52
2022/01/03 01:56:03;;;;;;;;;;;;;;;;;;2106291;28;19962;-50
2022/01/03 01:57:03;;;;;;;;;;;;;;;;;;2109454;28;20245;-50
2022/01/03 01:58:04;;;;;;;;;;;;;;;;;;2115459;28;19923;-50
2022/01/03 01:59:05;;;;;;;;;;;;;;;;;;2111660;28;19924;-50
2022/01/03 02:00:06;;;;;;;;;;;;;;;;;;2110768;28;19923;-50
2022/01/03 02:01:07;;;;;;;;;;;;;;;;;;2115279;28;19920;-55
2022/01/03 02:02:08;;;;;;;;;;;;;;;;;;2110798;28;19947;-57
2022/01/03 02:03:08;;;;;;;;;;;;;;;;;;2106223;28;19966;-58
2022/01/03 02:04:09;;;;;;;;;;;;;;;;;;2107105;28;19920;-57
2022/01/03 02:05:10;;;;;;;;;;;;;;;;;;2104863;28;19920;-58
2022/01/03 02:06:11;;;;;;;;;;;;;;;;;;2101419;28;19927;-58
2022/01/03 02:07:12;;;;;;;;;;;;;;;;;;2098445;28;19921;-58
2022/01/03 02:08:13;;;;;;;;;;;;;;;;;;2101456;28;19920;-60
2022/01/03 02:09:13;;;;;;;;;;;;;;;;;;2105392;28;19919;-58
2022/01/03 02:10:14;;;;;;;;;;;;;;;;;;2106753;28;19920;-58
2022/01/03 02:11:15;;;;;;;;;;;;;;;;;;2106656;28;19924;-57
2022/01/03 02:12:16;;;;;;;;;;;;;;;;;;2099610;28;19954;-52
2022/01/03 02:13:19;;;;;;;;;;;;;;;;;;2098397;28;19920;-49
2022/01/03 02:14:20;;;;;;;;;;;;;;;;;;2104153;28;20355;-55
2022/01/03 02:15:22;;;;;;;;;;;;;;;;;;2098786;28;20319;-50
2022/01/03 02:16:23;;;;;;;;;;;;;;;;;;2097771;28;19943;-51
2022/01/03 02:17:23;;;;;;;;;;;;;;;;;;2101795;28;19945;-48
2022/01/03 02:18:24;;;;;;;;;;;;;;;;;;2098720;28;19924;-49
2022/01/03 02:19:25;;;;;;;;;;;;;;;;;;2098394;28;19920;-50
2022/01/03 02:20:27;;;;;;;;;;;;;;;;;;2103991;28;19919;-50
2022/01/03 02:21:27;;;;;;;;;;;;;;;;;;2098347;28;20337;-48
2022/01/03 02:22:28;;;;;;;;;;;;;;;;;;2098349;28;19927;-50
2022/01/03 02:23:29;;;;;;;;;;;;;;;;;;2105534;28;19920;-49
2022/01/03 02:24:30;;;;;;;;;;;;;;;;;;2115124;28;20291;-50
2022/01/03 02:25:31;;;;;;;;;;;;;;;;;;2115274;28;20384;-52
2022/01/03 02:26:32;;;;;;;;;;;;;;;;;;2105482;28;19921;-49
2022/01/03 02:27:32;;;;;;;;;;;;;;;;;;2115177;28;20380;-50
2022/01/03 02:28:33;;;;;;;;;;;;;;;;;;2114190;28;20158;-49
2022/01/03 02:29:34;;;;;;;;;;;;;;;;;;2106086;28;19934;-51
2022/01/03 02:30:35;;;;;;;;;;;;;;;;;;2098258;28;19928;-51
2022/01/03 02:31:36;;;;;;;;;;;;;;;;;;2098901;28;20428;-49
2022/01/03 02:32:37;;;;;;;;;;;;;;;;;;2105621;28;19975;-51
2022/01/03 02:33:38;;;;;;;;;;;;;;;;;;2106701;28;20285;-50
2022/01/03 02:34:39;;;;;;;;;;;;;;;;;;2105361;28;20015;-50
2022/01/03 02:35:40;;;;;;;;;;;;;;;;;;2101983;28;19920;-48
2022/01/03 02:36:41;;;;;;;;;;;;;;;;;;2098259;28;19921;-49
2022/01/03 02:37:42;;;;;;;;;;;;;;;;;;2099070;28;19927;-48
2022/01/03 02:38:46;;;;;;;;;;;;;;;;;;2110253;28;20014;-50
2022/01/03 02:39:47;;;;;;;;;;;;;;;;;;2115121;28;19926;-49
2022/01/03 02:40:48;;;;;;;;;;;;;;;;;;2109327;28;19920;-49
2022/01/03 02:41:48;;;;;;;;;;;;;;;;;;2111433;28;19919;-50
2022/01/03 02:42:49;;;;;;;;;;;;;;;;;;2114203;28;19926;-48
2022/01/03 02:43:50;;;;;;;;;;;;;;;;;;2109808;28;19928;-50
2022/01/03 02:44:51;;;;;;;;;;;;;;;;;;2102080;28;19920;-49
2022/01/03 02:45:52;;;;;;;;;;;;;;;;;;2098327;28;19920;-49
2022/01/03 02:46:53;;;;;;;;;;;;;;;;;;2101688;28;20313;-48
2022/01/03 02:47:54;;;;;;;;;;;;;;;;;;2105580;28;20301;-48
2022/01/03 02:48:54;;;;;;;;;;;;;;;;;;2106592;28;19919;-48
2022/01/03 02:49:55;;;;;;;;;;;;;;;;;;2104846;28;20316;-49
2022/01/03 02:50:56;;;;;;;;;;;;;;;;;;2106044;28;19920;-49
2022/01/03 02:51:57;;;;;;;;;;;;;;;;;;2106517;28;19920;-48
2022/01/03 02:52:58;;;;;;;;;;;;;;;;;;2107420;28;19920;-49
2022/01/03 02:53:58;;;;;;;;;;;;;;;;;;2098812;28;19926;-48
2022/01/03 02:55:00;;;;;;;;;;;;;;;;;;2098105;28;19967;-49
2022/01/03 02:56:00;;;;;;;;;;;;;;;;;;2102442;28;20006;-50
2022/01/03 02:57:01;;;;;;;;;;;;;;;;;;2098189;28;20355;-49
2022/01/03 02:58:07;;;;;;;;;;;;;;;;;;2098175;28;20443;-51
2022/01/03 02:59:07;;;;;;;;;;;;;;;;;;2107129;28;20004;-54
2022/01/03 03:00:08;;;;;;;;;;;;;;;;;;2106476;28;19969;-54
2022/01/03 03:01:09;;;;;;;;;;;;;;;;;;2105902;28;19920;-56
2022/01/03 03:02:10;;;;;;;;;;;;;;;;;;2104498;28;19924;-52
2022/01/03 03:03:11;;;;;;;;;;;;;;;;;;2106589;28;19926;-49
2022/01/03 03:04:12;;;;;;;;;;;;;;;;;;2105972;28;20186;-55
2022/01/03 03:05:13;;;;;;;;;;;;;;;;;;2104579;28;19919;-53
2022/01/03 03:06:13;;;;;;;;;;;;;;;;;;2106474;28;19924;-54
2022/01/03 03:07:14;;;;;;;;;;;;;;;;;;2105851;28;19920;-52
2022/01/03 03:08:16;;;;;;;;;;;;;;;;;;2104699;28;19928;-50
2022/01/03 03:09:16;;;;;;;;;;;;;;;;;;2106395;28;20010;-54
2022/01/03 03:10:17;;;;;;;;;;;;;;;;;;2105063;28;19920;-50
2022/01/03 03:11:18;;;;;;;;;;;;;;;;;;2109989;28;19923;-53
2022/01/03 03:12:19;;;;;;;;;;;;;;;;;;2114854;28;19926;-50
2022/01/03 03:13:20;;;;;;;;;;;;;;;;;;2109107;28;19920;-50
2022/01/03 03:14:21;;;;;;;;;;;;;;;;;;2105644;28;20345;-53
2022/01/03 03:15:22;;;;;;;;;;;;;;;;;;2106516;28;19919;-50
2022/01/03 03:16:22;;;;;;;;;;;;;;;;;;2105238;28;19919;-51
2022/01/03 03:17:23;;;;;;;;;;;;;;;;;;2104949;28;19920;-51
2022/01/03 03:18:24;;;;;;;;;;;;;;;;;;2106455;28;19920;-49
2022/01/03 03:19:25;;;;;;;;;;;;;;;;;;2105657;28;19920;-51
2022/01/03 03:20:26;;;;;;;;;;;;;;;;;;2102197;28;19924;-53
2022/01/03 03:21:27;;;;;;;;;;;;;;;;;;2098080;28;19920;-50
2022/01/03 03:22:27;;;;;;;;;;;;;;;;;;2102774;28;20171;-52
2022/01/03 03:23:28;;;;;;;;;;;;;;;;;;2100039;28;19920;-50
2022/01/03 03:24:30;;;;;;;;;;;;;;;;;;2097986;28;19931;-53
2022/01/03 03:25:31;;;;;;;;;;;;;;;;;;2101745;28;19993;-50
2022/01/03 03:26:32;;;;;;;;;;;;;;;;;;2105854;28;19976;-51
2022/01/03 03:27:32;;;;;;;;;;;;;;;;;;2106302;28;20345;-54
2022/01/03 03:28:46;;;;;;;;;;;;;;;;;;2104076;28;19924;-52
2022/01/03 03:29:47;;;;;;;;;;;;;;;;;;2106504;28;20308;-49
2022/01/03 03:30:48;;;;;;;;;;;;;;;;;;2106417;28;20417;-56
2022/01/03 03:31:48;;;;;;;;;;;;;;;;;;2104613;28;20430;-50
2022/01/03 03:32:49;;;;;;;;;;;;;;;;;;2097892;28;19965;-54
2022/01/03 03:33:50;;;;;;;;;;;;;;;;;;2098044;28;20396;-54
2022/01/03 03:34:51;;;;;;;;;;;;;;;;;;2105364;28;20323;-54
2022/01/03 03:35:52;;;;;;;;;;;;;;;;;;2097895;28;19927;-54
2022/01/03 03:36:53;;;;;;;;;;;;;;;;;;2098557;28;19957;-49
2022/01/03 03:37:54;;;;;;;;;;;;;;;;;;2104358;28;20371;-50
2022/01/03 03:38:54;;;;;;;;;;;;;;;;;;2106399;28;19920;-50
2022/01/03 03:39:55;;;;;;;;;;;;;;;;;;2105211;28;19924;-48
2022/01/03 03:40:56;;;;;;;;;;;;;;;;;;2104986;28;19920;-49
2022/01/03 03:41:57;;;;;;;;;;;;;;;;;;2097851;28;19966;-50
2022/01/03 03:42:58;;;;;;;;;;;;;;;;;;2098623;28;19920;-48
2022/01/03 03:43:58;;;;;;;;;;;;;;;;;;2108707;28;19931;-49
2022/01/03 03:44:59;;;;;;;;;;;;;;;;;;2114706;28;19919;-49
2022/01/03 03:46:00;;;;;;;;;;;;;;;;;;2110175;28;20023;-50
2022/01/03 03:47:01;;;;;;;;;;;;;;;;;;2103909;28;20281;-47
2022/01/03 03:48:02;;;;;;;;;;;;;;;;;;2097971;28;20439;-49
2022/01/03 03:49:03;;;;;;;;;;;;;;;;;;2099586;28;20365;-50
2022/01/03 03:50:04;;;;;;;;;;;;;;;;;;2112309;28;19924;-48
2022/01/03 03:51:05;;;;;;;;;;;;;;;;;;2114633;28;19924;-49
2022/01/03 03:52:06;;;;;;;;;;;;;;;;;;2108015;28;20042;-48
2022/01/03 03:53:07;;;;;;;;;;;;;;;;;;2111881;28;19930;-52
2022/01/03 03:54:07;;;;;;;;;;;;;;;;;;2114660;28;20273;-50
2022/01/03 03:55:08;;;;;;;;;;;;;;;;;;2111094;28;19924;-49
2022/01/03 03:56:09;;;;;;;;;;;;;;;;;;2101745;28;19920;-51
2022/01/03 03:57:10;;;;;;;;;;;;;;;;;;2099337;28;19920;-52
2022/01/03 03:58:13;;;;;;;;;;;;;;;;;;2102926;28;19920;-50
2022/01/03 03:59:13;;;;;;;;;;;;;;;;;;2106619;28;20006;-52
2022/01/03 04:00:15;;;;;;;;;;;;;;;;;;2107818;28;20395;-50
2022/01/03 04:01:15;;;;;;;;;;;;;;;;;;2105227;28;20236;-49
2022/01/03 04:02:17;;;;;;;;;;;;;;;;;;2107551;28;19923;-50
2022/01/03 04:03:17;;;;;;;;;;;;;;;;;;2107689;28;20349;-49
2022/01/03 04:04:18;;;;;;;;;;;;;;;;;;2108326;28;19977;-50
2022/01/03 04:05:19;;;;;;;;;;;;;;;;;;2099322;28;19924;-48
2022/01/03 04:06:20;;;;;;;;;;;;;;;;;;2099303;28;19920;-49
2022/01/03 04:07:21;;;;;;;;;;;;;;;;;;2106788;28;20308;-49
2022/01/03 04:08:22;;;;;;;;;;;;;;;;;;2116285;28;19935;-50
2022/01/03 04:09:23;;;;;;;;;;;;;;;;;;2113372;28;20297;-53
2022/01/03 04:10:23;;;;;;;;;;;;;;;;;;2107423;28;19919;-50
2022/01/03 04:11:24;;;;;;;;;;;;;;;;;;2099245;28;19924;-55
2022/01/03 04:12:25;;;;;;;;;;;;;;;;;;2099416;28;19986;-55
2022/01/03 04:13:26;;;;;;;;;;;;;;;;;;2105811;28;20275;-55
2022/01/03 04:14:27;;;;;;;;;;;;;;;;;;2099058;28;20300;-54
2022/01/03 04:15:28;;;;;;;;;;;;;;;;;;2100287;28;19943;-51
2022/01/03 04:16:29;;;;;;;;;;;;;;;;;;2106156;28;20373;-52
2022/01/03 04:17:30;;;;;;;;;;;;;;;;;;2099158;28;19920;-54
2022/01/03 04:18:30;;;;;;;;;;;;;;;;;;2100024;28;20421;-51
2022/01/03 04:19:31;;;;;;;;;;;;;;;;;;2106170;28;19920;-50
2022/01/03 04:20:32;;;;;;;;;;;;;;;;;;2107500;28;19920;-50
2022/01/03 04:21:33;;;;;;;;;;;;;;;;;;2105553;28;20182;-53
2022/01/03 04:22:34;;;;;;;;;;;;;;;;;;2106323;28;20033;-51
2022/01/03 04:23:35;;;;;;;;;;;;;;;;;;2099191;28;20423;-55
2022/01/03 04:24:36;;;;;;;;;;;;;;;;;;2100435;28;20015;-50
2022/01/03 04:25:36;;;;;;;;;;;;;;;;;;2113015;28;19969;-52
2022/01/03 04:26:37;;;;;;;;;;;;;;;;;;2115886;28;19924;-54
2022/01/03 04:27:38;;;;;;;;;;;;;;;;;;2111031;28;19920;-49
2022/01/03 04:28:39;;;;;;;;;;;;;;;;;;2106147;28;19920;-50
2022/01/03 04:29:39;;;;;;;;;;;;;;;;;;2107524;28;19920;-49
2022/01/03 04:30:40;;;;;;;;;;;;;;;;;;2106472;28;20280;-52
2022/01/03 04:31:41;;;;;;;;;;;;;;;;;;2104700;28;19920;-50
2022/01/03 04:32:42;;;;;;;;;;;;;;;;;;2107452;28;19920;-51
2022/01/03 04:33:43;;;;;;;;;;;;;;;;;;2104188;28;19950;-49
2022/01/03 04:34:44;;;;;;;;;;;;;;;;;;2107095;28;19924;-49
2022/01/03 04:35:44;;;;;;;;;;;;;;;;;;2107401;28;19920;-54
2022/01/03 04:36:45;;;;;;;;;;;;;;;;;;2106343;28;19920;-50
2022/01/03 04:37:46;;;;;;;;;;;;;;;;;;2107199;28;20304;-55
2022/01/03 04:38:47;;;;;;;;;;;;;;;;;;2107447;28;19920;-51
2022/01/03 04:39:47;;;;;;;;;;;;;;;;;;2108398;28;20276;-50
2022/01/03 04:40:48;;;;;;;;;;;;;;;;;;2099512;28;20270;-49
2022/01/03 04:41:49;;;;;;;;;;;;;;;;;;2098900;28;19920;-49
2022/01/03 04:42:51;;;;;;;;;;;;;;;;;;2103567;28;19973;-50
2022/01/03 04:43:52;;;;;;;;;;;;;;;;;;2107357;28;20440;-52
2022/01/03 04:44:53;;;;;;;;;;;;;;;;;;2107360;28;20065;-51
2022/01/03 04:45:55;;;;;;;;;;;;;;;;;;2105937;28;19924;-52
2022/01/03 04:46:55;;;;;;;;;;;;;;;;;;2107282;28;19931;-50
2022/01/03 04:47:56;;;;;;;;;;;;;;;;;;2107169;28;19928;-52
2022/01/03 04:48:57;;;;;;;;;;;;;;;;;;2105303;28;20014;-50
2022/01/03 04:49:58;;;;;;;;;;;;;;;;;;2107429;28;19920;-50
2022/01/03 04:50:59;;;;;;;;;;;;;;;;;;2106945;28;19973;-55
2022/01/03 04:52:00;;;;;;;;;;;;;;;;;;2106376;28;19920;-49
2022/01/03 04:53:00;;;;;;;;;;;;;;;;;;2098956;28;19920;-51
2022/01/03 04:54:01;;;;;;;;;;;;;;;;;;2099833;28;19920;-52
2022/01/03 04:55:02;;;;;;;;;;;;;;;;;;2106011;28;20019;-54
2022/01/03 04:56:03;;;;;;;;;;;;;;;;;;2098854;28;19927;-50
2022/01/03 04:57:04;;;;;;;;;;;;;;;;;;2099687;28;19924;-52
2022/01/03 04:58:05;;;;;;;;;;;;;;;;;;2107239;28;19931;-54
2022/01/03 04:59:05;;;;;;;;;;;;;;;;;;2107402;28;19923;-52
2022/01/03 05:00:06;;;;;;;;;;;;;;;;;;2105577;28;20335;-52
2022/01/03 05:01:07;;;;;;;;;;;;;;;;;;2111768;28;19926;-52
2022/01/03 05:02:08;;;;;;;;;;;;;;;;;;2115835;28;20010;-53
2022/01/03 05:03:09;;;;;;;;;;;;;;;;;;2111196;28;19924;-54
2022/01/03 05:04:10;;;;;;;;;;;;;;;;;;2106116;28;20244;-52
2022/01/03 05:05:11;;;;;;;;;;;;;;;;;;2107402;28;19920;-54
2022/01/03 05:06:12;;;;;;;;;;;;;;;;;;2103648;28;20174;-53
2022/01/03 05:07:13;;;;;;;;;;;;;;;;;;2101622;28;19921;-53
2022/01/03 05:08:14;;;;;;;;;;;;;;;;;;2099030;28;19921;-53
2022/01/03 05:09:15;;;;;;;;;;;;;;;;;;2102315;28;19927;-50
2022/01/03 05:10:16;;;;;;;;;;;;;;;;;;2105828;28;20266;-50
2022/01/03 05:11:17;;;;;;;;;;;;;;;;;;2107165;28;19920;-50
2022/01/03 05:12:17;;;;;;;;;;;;;;;;;;2105798;28;19928;-52
2022/01/03 05:13:18;;;;;;;;;;;;;;;;;;2106370;28;19965;-53
2022/01/03 05:14:19;;;;;;;;;;;;;;;;;;2107401;28;19965;-50
2022/01/03 05:15:20;;;;;;;;;;;;;;;;;;2105130;28;20010;-52
2022/01/03 05:16:21;;;;;;;;;;;;;;;;;;2107194;28;19920;-53
2022/01/03 05:17:21;;;;;;;;;;;;;;;;;;2106993;28;20330;-53
2022/01/03 05:18:22;;;;;;;;;;;;;;;;;;2105430;28;19928;-51
2022/01/03 05:19:23;;;;;;;;;;;;;;;;;;2115521;28;20254;-52
2022/01/03 05:20:24;;;;;;;;;;;;;;;;;;2115753;28;20280;-51
2022/01/03 05:21:26;;;;;;;;;;;;;;;;;;2109268;28;19927;-54
2022/01/03 05:22:26;;;;;;;;;;;;;;;;;;2098979;28;20006;-55
2022/01/03 05:23:27;;;;;;;;;;;;;;;;;;2098915;28;19920;-52
2022/01/03 05:24:28;;;;;;;;;;;;;;;;;;2104075;28;19920;-53
2022/01/03 05:25:29;;;;;;;;;;;;;;;;;;2107084;28;20313;-54
2022/01/03 05:26:30;;;;;;;;;;;;;;;;;;2107106;28;19924;-52
2022/01/03 05:27:31;;;;;;;;;;;;;;;;;;2105091;28;19927;-52
2022/01/03 05:28:32;;;;;;;;;;;;;;;;;;2107108;28;19929;-50
2022/01/03 05:29:32;;;;;;;;;;;;;;;;;;2106629;28;20358;-50
2022/01/03 05:30:33;;;;;;;;;;;;;;;;;;2103105;28;20349;-52
2022/01/03 05:31:34;;;;;;;;;;;;;;;;;;2098730;28;19970;-51
2022/01/03 05:32:35;;;;;;;;;;;;;;;;;;2105010;28;20320;-50
2022/01/03 05:33:36;;;;;;;;;;;;;;;;;;2105281;28;20350;-47
2022/01/03 05:34:37;;;;;;;;;;;;;;;;;;2107231;28;20270;-48
2022/01/03 05:35:38;;;;;;;;;;;;;;;;;;2106008;28;19919;-50
2022/01/03 05:36:38;;;;;;;;;;;;;;;;;;2105766;28;19920;-49
2022/01/03 05:37:39;;;;;;;;;;;;;;;;;;2098778;28;20365;-48
2022/01/03 05:38:40;;;;;;;;;;;;;;;;;;2099604;28;19920;-48
2022/01/03 05:39:41;;;;;;;;;;;;;;;;;;2105887;28;19927;-49
2022/01/03 05:40:42;;;;;;;;;;;;;;;;;;2107145;28;19945;-50
2022/01/03 05:41:42;;;;;;;;;;;;;;;;;;2105547;28;19938;-48
2022/01/03 05:42:46;;;;;;;;;;;;;;;;;;2104627;28;19920;-48
2022/01/03 05:43:47;;;;;;;;;;;;;;;;;;2098676;28;20011;-48
2022/01/03 05:44:48;;;;;;;;;;;;;;;;;;2101481;28;19927;-52
2022/01/03 05:45:48;;;;;;;;;;;;;;;;;;2099136;28;19931;-47
2022/01/03 05:46:49;;;;;;;;;;;;;;;;;;2098552;28;20293;-48
2022/01/03 05:47:51;;;;;;;;;;;;;;;;;;2103269;28;20006;-50
2022/01/03 05:48:52;;;;;;;;;;;;;;;;;;2106923;28;20045;-49
2022/01/03 05:49:55;;;;;;;;;;;;;;;;;;2107093;28;19968;-50
2022/01/03 05:50:56;;;;;;;;;;;;;;;;;;2104492;28;20015;-49
2022/01/03 05:51:56;;;;;;;;;;;;;;;;;;2107003;28;19924;-47
2022/01/03 05:52:57;;;;;;;;;;;;;;;;;;2106365;28;19924;-50
2022/01/03 05:53:58;;;;;;;;;;;;;;;;;;2103392;28;19920;-51
2022/01/03 05:54:59;;;;;;;;;;;;;;;;;;2098471;28;19920;-47
2022/01/03 05:56:00;;;;;;;;;;;;;;;;;;2098745;28;19920;-49
2022/01/03 05:57:00;;;;;;;;;;;;;;;;;;2105016;28;19923;-48
2022/01/03 05:58:01;;;;;;;;;;;;;;;;;;2106814;28;19943;-48
2022/01/03 05:59:07;;;;;;;;;;;;;;;;;;2106378;28;19931;-50
2022/01/03 06:00:09;;;;;;;;;;;;;;;;;;2105803;28;19927;-47
2022/01/03 06:01:10;;;;;;;;;;;;;;;;;;2106920;28;19955;-49
2022/01/03 06:02:11;;;;;;;;;;;;;;;;;;2104781;28;19928;-48
2022/01/03 06:03:12;;;;;;;;;;;;;;;;;;2105185;28;19920;-49
2022/01/03 06:04:19;;;;;;;;;;;;;;;;;;2098592;28;19924;-49
2022/01/03 06:05:32;;;;;;;;;;;;;;;;;;2102326;28;20042;-49
2022/01/03 06:06:53;;;;;;;;;;;;;;;;;;2106728;28;20003;-50
2022/01/03 06:07:54;;;;;;;;;;;;;;;;;;2106629;28;20007;-47
2022/01/03 06:08:55;;;;;;;;;;;;;;;;;;2104131;28;19932;-49
2022/01/03 06:09:56;;;;;;;;;;;;;;;;;;2106801;28;20000;-48
2022/01/03 06:10:56;;;;;;;;;;;;;;;;;;2105884;28;19924;-50
2022/01/03 06:11:58;;;;;;;;;;;;;;;;;;2108458;28;19920;-48
2022/01/03 06:12:59;;;;;;;;;;;;;;;;;;2115247;28;20257;-48
2022/01/03 06:14:00;;;;;;;;;;;;;;;;;;2111184;28;19968;-48
2022/01/03 06:15:01;;;;;;;;;;;;;;;;;;2105546;28;19920;-49
2022/01/03 06:16:02;;;;;;;;;;;;;;;;;;2098443;28;20360;-51
2022/01/03 06:17:02;;;;;;;;;;;;;;;;;;2099781;28;19924;-48
2022/01/03 06:18:04;;;;;;;;;;;;;;;;;;2104231;28;19920;-48
2022/01/03 06:19:04;;;;;;;;;;;;;;;;;;2098445;28;20014;-49
2022/01/03 06:20:05;;;;;;;;;;;;;;;;;;2100968;28;19927;-48
2022/01/03 06:21:06;;;;;;;;;;;;;;;;;;2105213;28;20428;-48
2022/01/03 06:22:08;;;;;;;;;;;;;;;;;;2106731;28;19939;-48
2022/01/03 06:23:09;;;;;;;;;;;;;;;;;;2105713;28;20019;-48
2022/01/03 06:24:10;;;;;;;;;;;;;;;;;;2106365;28;19926;-49
2022/01/03 06:25:11;;;;;;;;;;;;;;;;;;2106704;28;20026;-52
2022/01/03 06:26:12;;;;;;;;;;;;;;;;;;2105048;28;19920;-47
2022/01/03 06:27:13;;;;;;;;;;;;;;;;;;2105877;28;19927;-48
2022/01/03 06:28:14;;;;;;;;;;;;;;;;;;2106847;28;20322;-48
2022/01/03 06:29:14;;;;;;;;;;;;;;;;;;2103330;28;20395;-48
2022/01/03 06:30:15;;;;;;;;;;;;;;;;;;2105482;28;19923;-49
2022/01/03 06:31:18;;;;;;;;;;;;;;;;;;2106723;28;20006;-49
2022/01/03 06:32:19;;;;;;;;;;;;;;;;;;2106166;28;19935;-48
2022/01/03 06:33:20;;;;;;;;;;;;;;;;;;2098345;28;20373;-49
2022/01/03 06:34:21;;;;;;;;;;;;;;;;;;2098290;28;19927;-51
2022/01/03 06:35:21;;;;;;;;;;;;;;;;;;2104635;28;20269;-50
2022/01/03 06:36:22;;;;;;;;;;;;;;;;;;2115120;28;20299;-48
2022/01/03 06:37:26;;;;;;;;;;;;;;;;;;2115153;28;19964;-49
2022/01/03 06:38:27;;;;;;;;;;;;;;;;;;2104417;28;19970;-49
2022/01/03 06:39:28;;;;;;;;;;;;;;;;;;2106708;28;19947;-48
2022/01/03 06:40:28;;;;;;;;;;;;;;;;;;2106187;28;19943;-48
2022/01/03 06:41:29;;;;;;;;;;;;;;;;;;2107817;28;20383;-48
2022/01/03 06:42:30;;;;;;;;;;;;;;;;;;2115046;28;20281;-50
2022/01/03 06:43:31;;;;;;;;;;;;;;;;;;2113556;28;19920;-48
2022/01/03 06:44:32;;;;;;;;;;;;;;;;;;2105335;28;19924;-49
2022/01/03 06:45:33;;;;;;;;;;;;;;;;;;2098285;28;20089;-48
2022/01/03 06:46:34;;;;;;;;;;;;;;;;;;2099023;28;19984;-49
2022/01/03 06:47:35;;;;;;;;;;;;;;;;;;2109708;28;19931;-49
2022/01/03 06:48:36;;;;;;;;;;;;;;;;;;2115179;28;19937;-49
2022/01/03 06:49:36;;;;;;;;;;;;;;;;;;2110934;28;19920;-48
2022/01/03 06:50:37;;;;;;;;;;;;;;;;;;2109087;28;19919;-48
2022/01/03 06:51:38;;;;;;;;;;;;;;;;;;2114919;28;19919;-48
2022/01/03 06:52:39;;;;;;;;;;;;;;;;;;2110427;28;19920;-49
2022/01/03 06:53:40;;;;;;;;;;;;;;;;;;2104237;28;19973;-49
2022/01/03 06:54:40;;;;;;;;;;;;;;;;;;2098528;28;20297;-47
2022/01/03 06:55:42;;;;;;;;;;;;;;;;;;2100877;28;20299;-49
2022/01/03 06:56:43;;;;;;;;;;;;;;;;;;2104958;28;20051;-48
2022/01/03 06:57:44;;;;;;;;;;;;;;;;;;2106738;28;19919;-47
2022/01/03 06:58:46;;;;;;;;;;;;;;;;;;2105052;28;19928;-48
2022/01/03 06:59:47;;;;;;;;;;;;;;;;;;2106248;28;20422;-48